East Middlebury, VT

8:56 PM EST on December 27, 2014 (GMT -0500)
EastView | Change Station
CLOSE
Current Station
Personal Weather Station
Location: Middlebury, VT
Elevation: 390 ft
Nearby Weather Stations

Elev 390 ft 44.00 °N, 73.17 °W | Updated 14 minutes ago

Overcast
Overcast
43.9 °F
Feels Like 40 °F
N
6.0
Wind Variable Wind from South
Gusts 10.0 mph

Today
High -- | Low -- °F
--% Chance of Precip.
Yesterday
High -- | Low -- °F
Precip. -- in
7:26 AM 4:20 PM
Waxing Crescent, 42% visible
Pressure 29.97 in
Visibility 10.0 miles
Clouds Scattered Clouds 5500 ft
Scattered Clouds 6500 ft
Overcast 8500 ft
Windchill 40 °F
Dew Point 36 °F
Humidity 74%
Rainfall 0.00 in
Snow Depth Not available.
UV 0 out of 12
Pollen .10 out of 12
Air Quality Not available.
Flu Activity Not available.
METAR K6B0 280135Z AUTO 16010G20KT 10SM SCT055 SCT065 OVC085 07/01 A2997 RMK AO2 T00730008

More Conditions Fewer Conditions

Pressure 29.97 in
Visibility 10.0 miles
Clouds Scattered Clouds 5500 ft
Scattered Clouds 6500 ft
Overcast 8500 ft
Windchill 40 °F
Dew Point 36 °F
Humidity 74%
Rainfall 0.00 in
Snow Depth Not available.
UV 0 out of 12
Pollen .10 out of 12
Air Quality Not available.
Flu Activity Not available.
METAR K6B0 280135Z AUTO 16010G20KT 10SM SCT055 SCT065 OVC085 07/01 A2997 RMK AO2 T00730008

More Conditions Fewer Conditions

10-Day Weather Forecast

Almanac

Astronomy

Dec. 27, 2014 Rise Set
Actual Time
Civil Twilight
Nautical Twilight
Astronomical Twilight
Moon
Length of Visible Light
Length of Day
Tomorrow will be .
, % of the Moon is Illuminated

Today's Extremes

State Highs State Lows

Community

WunderPhotos

Upload Photos

1,781,124 photos uploaded!

WunderBlogs® & News

Nearby

Air Quality

  Air Quality AQ Index Pollutant
Not available.

Snow Depth

Station Depth Elevation

Earthquake Activity

City Distance Mag. Time & Date
Minimum magnitude displayed is 2.5.

Coastal Water Temperatures

Place Temperature

Nearby Weather Stations